Time;durP1;ratioP1;P1;durP2;ratioP2;P2;SDS_P1;SDS_P2;PMS_P1;PMS_P2;Temp;Humidity;BMP_temperature;BMP_pressure;BME280_temperature;BME280_humidity;BME280_pressure;Samples;Min_cycle;Max_cycle;Signal;HPM_P1;HPM_P2
2022/12/13 00:01:29;;;;;;;5.10;3.60;;;;;;;;;;4914361;29;20048;-63
2022/12/13 00:03:55;;;;;;;4.68;3.35;;;;;;;;;;4899801;29;20032;-63
2022/12/13 00:06:21;;;;;;;5.43;3.55;;;;;;;;;;4898390;29;20075;-63
2022/12/13 00:08:46;;;;;;;5.18;3.42;;;;;;;;;;4914089;29;20064;-62
2022/12/13 00:11:12;;;;;;;5.70;3.55;;;;;;;;;;4898134;29;20529;-64
2022/12/13 00:13:38;;;;;;;4.72;3.33;;;;;;;;;;4913870;29;20056;-63
2022/12/13 00:16:05;;;;;;;7.25;3.55;;;;;;;;;;4899462;29;20040;-64
2022/12/13 00:18:31;;;;;;;4.90;3.28;;;;;;;;;;4899323;29;20096;-64
2022/12/13 00:20:56;;;;;;;6.03;3.80;;;;;;;;;;4898054;29;20084;-63
2022/12/13 00:23:22;;;;;;;3.88;3.00;;;;;;;;;;4899126;29;20032;-63
2022/12/13 00:25:48;;;;;;;4.60;3.38;;;;;;;;;;4897916;29;20056;-63
2022/12/13 00:28:14;;;;;;;4.15;3.15;;;;;;;;;;4899241;29;20108;-64
2022/12/13 00:30:39;;;;;;;5.55;3.53;;;;;;;;;;4898143;29;20068;-64
2022/12/13 00:33:05;;;;;;;4.43;3.25;;;;;;;;;;4898982;29;20068;-65
2022/12/13 00:35:31;;;;;;;4.60;2.92;;;;;;;;;;4899181;29;20044;-64
2022/12/13 00:37:57;;;;;;;5.55;3.53;;;;;;;;;;4913381;29;20045;-63
2022/12/13 00:40:22;;;;;;;4.80;3.45;;;;;;;;;;4899057;29;20068;-64
2022/12/13 00:42:47;;;;;;;4.90;3.10;;;;;;;;;;4913620;29;20056;-63
2022/12/13 00:45:13;;;;;;;6.15;3.35;;;;;;;;;;4897716;29;20044;-65
2022/12/13 00:47:39;;;;;;;5.70;3.47;;;;;;;;;;4913579;29;20490;-64
2022/12/13 00:50:05;;;;;;;5.47;3.45;;;;;;;;;;4897989;29;20088;-63
2022/12/13 00:52:32;;;;;;;6.55;4.07;;;;;;;;;;4913608;29;20092;-64
2022/12/13 00:54:58;;;;;;;5.43;3.50;;;;;;;;;;4901392;29;20093;-64
2022/12/13 00:57:23;;;;;;;5.15;3.83;;;;;;;;;;4900800;29;20487;-63
2022/12/13 00:59:49;;;;;;;5.45;3.72;;;;;;;;;;4902076;29;20495;-64
2022/12/13 01:02:15;;;;;;;5.10;3.40;;;;;;;;;;4900602;29;20084;-65
2022/12/13 01:04:40;;;;;;;5.07;3.60;;;;;;;;;;4899924;29;20438;-64
2022/12/13 01:07:06;;;;;;;5.97;3.85;;;;;;;;;;4913817;29;20256;-63
2022/12/13 01:09:32;;;;;;;5.10;3.78;;;;;;;;;;4913387;29;20140;-64
2022/12/13 01:11:59;;;;;;;5.90;3.80;;;;;;;;;;4900124;29;20047;-62
2022/12/13 01:14:24;;;;;;;6.10;3.80;;;;;;;;;;4900278;29;20075;-64
2022/12/13 01:16:50;;;;;;;5.65;3.63;;;;;;;;;;4899282;29;20036;-64
2022/12/13 01:19:15;;;;;;;6.68;4.05;;;;;;;;;;4896963;29;20032;-66
2022/12/13 01:21:41;;;;;;;5.78;3.45;;;;;;;;;;4898073;29;20124;-64
2022/12/13 01:24:07;;;;;;;5.07;3.42;;;;;;;;;;4898120;29;20097;-64
2022/12/13 01:26:33;;;;;;;5.57;3.55;;;;;;;;;;4912645;29;20083;-64
2022/12/13 01:28:59;;;;;;;5.55;3.78;;;;;;;;;;4898288;29;20061;-64
2022/12/13 01:31:25;;;;;;;6.35;3.70;;;;;;;;;;4898171;29;20040;-63
2022/12/13 01:33:52;;;;;;;6.15;4.13;;;;;;;;;;4898316;29;20033;-65
2022/12/13 01:36:19;;;;;;;6.13;3.88;;;;;;;;;;4896742;29;20136;-64
2022/12/13 01:38:45;;;;;;;6.38;3.80;;;;;;;;;;4896869;29;20041;-64
2022/12/13 01:41:15;;;;;;;5.15;3.80;;;;;;;;;;4896577;29;20500;-64
2022/12/13 01:43:40;;;;;;;6.13;3.90;;;;;;;;;;4897609;29;20411;-64
2022/12/13 01:46:06;;;;;;;5.70;3.80;;;;;;;;;;4897649;29;20178;-63
2022/12/13 01:48:34;;;;;;;6.32;4.30;;;;;;;;;;4897969;29;20494;-64
2022/12/13 01:51:04;;;;;;;7.28;4.15;;;;;;;;;;4896403;29;20131;-64
2022/12/13 01:53:32;;;;;;;6.03;4.10;;;;;;;;;;4896328;29;20055;-63
2022/12/13 01:56:01;;;;;;;6.13;3.92;;;;;;;;;;4880929;29;20131;-63
2022/12/13 01:58:27;;;;;;;6.82;4.00;;;;;;;;;;4896565;29;20037;-65
2022/12/13 02:00:52;;;;;;;6.22;4.25;;;;;;;;;;4897779;29;20558;-64
2022/12/13 02:03:19;;;;;;;6.32;4.40;;;;;;;;;;4896133;29;20565;-64
2022/12/13 02:05:51;;;;;;;9.38;4.40;;;;;;;;;;4896217;29;20084;-64
2022/12/13 02:08:18;;;;;;;6.55;4.25;;;;;;;;;;4896530;29;20127;-64
2022/12/13 02:10:45;;;;;;;9.85;4.70;;;;;;;;;;4896388;29;20092;-64
2022/12/13 02:13:11;;;;;;;6.60;3.78;;;;;;;;;;4897165;29;20079;-63
2022/12/13 02:15:45;;;;;;;7.57;4.13;;;;;;;;;;4897521;29;20040;-64
2022/12/13 02:18:16;;;;;;;6.00;4.15;;;;;;;;;;4897438;29;20074;-64
2022/12/13 02:20:47;;;;;;;7.65;5.30;;;;;;;;;;4897433;29;20043;-64
2022/12/13 02:23:16;;;;;;;7.32;4.63;;;;;;;;;;4897187;29;20039;-64
2022/12/13 02:26:00;;;;;;;8.48;4.22;;;;;;;;;;4896930;29;20532;-65
2022/12/13 02:28:32;;;;;;;10.60;4.63;;;;;;;;;;4897010;29;20068;-64
2022/12/13 02:31:19;;;;;;;7.78;4.78;;;;;;;;;;4911735;29;20072;-62
2022/12/13 02:33:45;;;;;;;6.25;4.00;;;;;;;;;;4896957;29;20044;-64
2022/12/13 02:36:37;;;;;;;7.57;4.55;;;;;;;;;;4911344;29;20063;-62
2022/12/13 02:39:08;;;;;;;7.00;4.18;;;;;;;;;;4878986;29;20048;-64
2022/12/13 02:41:54;;;;;;;8.52;4.53;;;;;;;;;;4896846;29;20049;-64
2022/12/13 02:44:22;;;;;;;10.50;4.95;;;;;;;;;;4879881;29;20037;-64
2022/12/13 02:47:09;;;;;;;7.85;4.65;;;;;;;;;;4895472;29;20461;-63
2022/12/13 02:49:37;;;;;;;7.68;4.57;;;;;;;;;;4895638;29;20143;-63
2022/12/13 02:52:09;;;;;;;8.20;4.78;;;;;;;;;;4895233;29;20036;-65
2022/12/13 02:54:36;;;;;;;8.63;4.78;;;;;;;;;;4895284;29;20400;-64
2022/12/13 02:57:02;;;;;;;9.88;5.18;;;;;;;;;;4896769;29;20048;-64
2022/12/13 02:59:33;;;;;;;7.85;5.15;;;;;;;;;;4895304;29;20499;-64
2022/12/13 03:01:58;;;;;;;9.70;4.53;;;;;;;;;;4896810;29;20044;-63
2022/12/13 03:04:36;;;;;;;7.25;4.57;;;;;;;;;;4896736;29;20045;-65
2022/12/13 03:07:07;;;;;;;16.58;4.78;;;;;;;;;;4895125;29;20048;-64
2022/12/13 03:09:45;;;;;;;8.73;5.45;;;;;;;;;;4896639;29;20036;-63
2022/12/13 03:15:22;;;;;;;9.35;5.20;;;;;;;;;;4896378;29;20052;-64
2022/12/13 03:17:50;;;;;;;9.18;5.22;;;;;;;;;;4894938;29;20426;-66
2022/12/13 03:20:17;;;;;;;8.63;4.72;;;;;;;;;;4896032;29;20413;-64
2022/12/13 03:22:43;;;;;;;10.32;5.10;;;;;;;;;;4895212;29;20044;-64
2022/12/13 03:25:08;;;;;;;8.88;4.88;;;;;;;;;;4896213;29;20417;-65
2022/12/13 03:27:34;;;;;;;7.10;4.93;;;;;;;;;;4896426;29;20044;-65
2022/12/13 03:29:59;;;;;;;9.07;4.85;;;;;;;;;;4895002;29;20052;-65
2022/12/13 03:32:24;;;;;;;7.53;4.63;;;;;;;;;;4895222;29;20128;-64
2022/12/13 03:34:50;;;;;;;7.30;4.45;;;;;;;;;;4910707;29;20425;-63
2022/12/13 03:37:16;;;;;;;8.48;5.10;;;;;;;;;;4910756;29;20419;-65
2022/12/13 03:39:41;;;;;;;8.40;4.80;;;;;;;;;;4910667;29;20376;-65
2022/12/13 03:42:07;;;;;;;10.07;5.07;;;;;;;;;;4910726;29;20067;-65
2022/12/13 03:44:32;;;;;;;10.98;5.25;;;;;;;;;;4894919;29;20039;-65
2022/12/13 03:46:59;;;;;;;9.15;5.25;;;;;;;;;;4894832;29;20126;-65
2022/12/13 03:49:24;;;;;;;9.82;4.95;;;;;;;;;;4896080;29;20032;-65
2022/12/13 03:51:49;;;;;;;10.45;5.35;;;;;;;;;;4910778;29;20096;-66
2022/12/13 03:54:15;;;;;;;8.77;5.47;;;;;;;;;;4896433;29;20055;-66
2022/12/13 03:56:41;;;;;;;8.93;5.35;;;;;;;;;;4910668;29;20139;-66
2022/12/13 03:59:06;;;;;;;8.98;5.30;;;;;;;;;;4911552;29;20456;-64
2022/12/13 04:01:31;;;;;;;13.88;6.35;;;;;;;;;;4894967;29;20059;-64
2022/12/13 04:03:57;;;;;;;9.77;5.47;;;;;;;;;;4896664;29;20037;-66
2022/12/13 04:06:22;;;;;;;9.68;5.20;;;;;;;;;;4896208;29;20052;-65
2022/12/13 04:08:49;;;;;;;10.60;5.03;;;;;;;;;;4895641;29;20044;-66
2022/12/13 04:13:58;;;;;;;8.75;4.97;;;;;;;;;;4895874;29;20089;-65
2022/12/13 04:16:24;;;;;;;8.77;5.25;;;;;;;;;;4910427;29;20487;-65
2022/12/13 04:18:49;;;;;;;9.38;5.13;;;;;;;;;;4910350;29;20033;-65
2022/12/13 04:21:15;;;;;;;9.30;5.07;;;;;;;;;;4910254;29;20041;-67
2022/12/13 04:23:41;;;;;;;8.10;4.70;;;;;;;;;;4895835;29;20074;-67
2022/12/13 04:26:07;;;;;;;8.75;5.13;;;;;;;;;;4910107;29;20068;-65
2022/12/13 04:28:33;;;;;;;9.32;5.22;;;;;;;;;;4910129;29;20040;-67
2022/12/13 04:30:58;;;;;;;9.35;5.45;;;;;;;;;;4895030;29;20076;-65
2022/12/13 04:33:24;;;;;;;11.80;5.63;;;;;;;;;;4897786;29;20082;-65
2022/12/13 04:35:50;;;;;;;8.18;5.07;;;;;;;;;;4899004;29;20044;-65
2022/12/13 04:38:15;;;;;;;9.70;5.00;;;;;;;;;;4898844;29;20084;-65
2022/12/13 04:40:41;;;;;;;7.32;4.85;;;;;;;;;;4898839;29;20036;-64
2022/12/13 04:43:06;;;;;;;6.93;4.10;;;;;;;;;;4897548;29;20037;-66
2022/12/13 04:45:32;;;;;;;7.65;4.47;;;;;;;;;;4898570;29;20572;-65
2022/12/13 04:47:58;;;;;;;6.82;3.97;;;;;;;;;;4897682;29;20035;-65
2022/12/13 04:50:24;;;;;;;9.43;4.95;;;;;;;;;;4898785;29;20443;-66
2022/12/13 04:52:49;;;;;;;5.72;4.25;;;;;;;;;;4897194;29;20108;-66
2022/12/13 04:55:15;;;;;;;7.85;4.03;;;;;;;;;;4898542;29;20079;-65
2022/12/13 04:57:40;;;;;;;8.65;4.20;;;;;;;;;;4898831;29;20100;-65
2022/12/13 05:00:07;;;;;;;7.10;4.43;;;;;;;;;;4897270;29;20087;-64
2022/12/13 05:02:33;;;;;;;8.00;4.38;;;;;;;;;;4898816;29;20167;-66
2022/12/13 05:04:59;;;;;;;8.55;4.60;;;;;;;;;;4896935;29;20127;-65
2022/12/13 05:07:25;;;;;;;7.13;4.65;;;;;;;;;;4898785;29;20048;-64
2022/12/13 05:09:50;;;;;;;9.43;4.97;;;;;;;;;;4912883;29;20113;-68
2022/12/13 05:12:16;;;;;;;11.77;5.30;;;;;;;;;;4898075;29;20052;-66
2022/12/13 05:14:41;;;;;;;8.80;5.05;;;;;;;;;;4897099;29;20065;-66
2022/12/13 05:17:07;;;;;;;8.15;5.20;;;;;;;;;;4912698;29;20131;-66
2022/12/13 05:19:33;;;;;;;7.57;4.65;;;;;;;;;;4896761;29;20045;-67
2022/12/13 05:21:59;;;;;;;7.97;5.22;;;;;;;;;;4898105;29;20051;-67
2022/12/13 05:24:24;;;;;;;9.82;5.28;;;;;;;;;;4898218;29;20088;-67
2022/12/13 05:26:50;;;;;;;9.32;5.40;;;;;;;;;;4896524;29;20052;-65
2022/12/13 05:29:16;;;;;;;9.20;5.93;;;;;;;;;;4912813;29;20037;-63
2022/12/13 05:31:41;;;;;;;9.27;5.05;;;;;;;;;;4912287;29;20041;-65
2022/12/13 05:34:07;;;;;;;8.82;5.65;;;;;;;;;;4898150;29;20044;-70
2022/12/13 05:36:33;;;;;;;10.80;5.30;;;;;;;;;;4896325;29;20040;-70
2022/12/13 05:38:58;;;;;;;8.82;5.50;;;;;;;;;;4896686;29;20044;-68
2022/12/13 05:41:26;;;;;;;9.32;5.20;;;;;;;;;;4912279;29;20067;-66
2022/12/13 05:43:51;;;;;;;10.02;5.57;;;;;;;;;;4896356;29;20040;-66
2022/12/13 05:46:17;;;;;;;8.57;5.28;;;;;;;;;;4897789;29;20073;-65
2022/12/13 05:48:42;;;;;;;8.57;4.88;;;;;;;;;;4896344;29;20036;-66
2022/12/13 05:51:08;;;;;;;8.65;5.18;;;;;;;;;;4897658;29;20044;-66
2022/12/13 05:53:34;;;;;;;9.38;5.55;;;;;;;;;;4897464;29;20123;-65
2022/12/13 05:56:00;;;;;;;10.02;5.82;;;;;;;;;;4897391;29;20582;-66
2022/12/13 05:58:26;;;;;;;9.95;5.07;;;;;;;;;;4912273;29;20451;-65
2022/12/13 06:00:51;;;;;;;9.70;5.93;;;;;;;;;;4897397;29;20033;-66
2022/12/13 06:03:16;;;;;;;9.98;6.03;;;;;;;;;;4910129;29;20045;-65
2022/12/13 06:05:43;;;;;;;7.82;4.80;;;;;;;;;;4894338;29;20075;-67
2022/12/13 06:08:09;;;;;;;10.68;5.55;;;;;;;;;;4894440;29;20040;-67
2022/12/13 06:10:34;;;;;;;8.20;5.13;;;;;;;;;;4909035;29;20080;-68
2022/12/13 06:12:59;;;;;;;7.43;5.38;;;;;;;;;;4894860;29;20060;-67
2022/12/13 06:15:25;;;;;;;10.23;5.20;;;;;;;;;;4895379;29;20043;-67
2022/12/13 06:17:51;;;;;;;9.20;5.22;;;;;;;;;;4910445;29;20052;-68
2022/12/13 06:20:17;;;;;;;8.77;5.03;;;;;;;;;;4910671;29;20032;-68
2022/12/13 06:22:43;;;;;;;9.75;5.00;;;;;;;;;;4910069;29;20048;-69
2022/12/13 06:25:09;;;;;;;10.40;5.88;;;;;;;;;;4893892;29;20483;-69
2022/12/13 06:27:34;;;;;;;7.68;4.93;;;;;;;;;;4910616;29;20400;-69
2022/12/13 06:30:00;;;;;;;8.05;5.43;;;;;;;;;;4909174;29;20384;-70
2022/12/13 06:32:26;;;;;;;10.73;6.63;;;;;;;;;;4894812;29;20039;-68
2022/12/13 06:34:51;;;;;;;9.68;5.70;;;;;;;;;;4894604;29;20039;-69
2022/12/13 06:37:17;;;;;;;10.27;5.55;;;;;;;;;;4908762;29;20040;-71
2022/12/13 06:39:43;;;;;;;10.40;5.70;;;;;;;;;;4909171;29;20049;-69
2022/12/13 06:42:13;;;;;;;9.00;5.35;;;;;;;;;;4909009;29;20036;-70
2022/12/13 06:44:40;;;;;;;8.43;5.15;;;;;;;;;;4893674;29;20032;-67
2022/12/13 06:47:06;;;;;;;11.93;5.93;;;;;;;;;;4892254;29;20583;-71
2022/12/13 06:49:32;;;;;;;8.50;5.32;;;;;;;;;;4907931;29;20032;-72
2022/12/13 06:51:57;;;;;;;11.50;5.72;;;;;;;;;;4908056;29;20044;-67
2022/12/13 06:54:23;;;;;;;9.13;5.72;;;;;;;;;;4909208;29;20044;-68
2022/12/13 06:56:48;;;;;;;10.90;5.78;;;;;;;;;;4892889;29;20048;-74
2022/12/13 06:59:14;;;;;;;8.63;5.60;;;;;;;;;;4894448;29;20060;-75
2022/12/13 07:01:41;;;;;;;9.23;5.40;;;;;;;;;;4894726;29;20067;-72
2022/12/13 07:04:09;;;;;;;11.38;4.68;;;;;;;;;;4893318;29;20237;-70
2022/12/13 07:06:43;;;;;;;8.55;5.40;;;;;;;;;;4892246;29;20052;-72
2022/12/13 07:09:08;;;;;;;8.98;5.60;;;;;;;;;;4892929;29;20451;-71
2022/12/13 07:11:34;;;;;;;7.85;5.20;;;;;;;;;;4893013;29;20045;-72
2022/12/13 07:14:00;;;;;;;9.82;5.80;;;;;;;;;;4877122;29;20063;-71
2022/12/13 07:16:26;;;;;;;8.68;4.70;;;;;;;;;;4908886;29;20041;-72
2022/12/13 07:18:53;;;;;;;14.02;7.10;;;;;;;;;;4894268;29;20032;-71
2022/12/13 07:21:20;;;;;;;9.30;5.53;;;;;;;;;;4910277;29;20059;-70
2022/12/13 07:23:46;;;;;;;9.00;5.55;;;;;;;;;;4893547;29;20029;-71
2022/12/13 07:26:11;;;;;;;10.50;5.78;;;;;;;;;;4894901;29;20108;-70
2022/12/13 07:28:41;;;;;;;10.18;5.88;;;;;;;;;;4891001;29;20519;-69
2022/12/13 07:31:12;;;;;;;11.52;5.93;;;;;;;;;;4891358;29;20562;-69
2022/12/13 07:33:42;;;;;;;11.93;6.25;;;;;;;;;;4891277;29;20044;-70
2022/12/13 07:36:11;;;;;;;10.63;5.85;;;;;;;;;;4899617;29;20033;-69
2022/12/13 07:38:39;;;;;;;9.98;6.07;;;;;;;;;;4904671;29;20517;-68
2022/12/13 07:41:05;;;;;;;9.32;5.82;;;;;;;;;;4889940;29;20041;-70
2022/12/13 07:43:31;;;;;;;8.75;5.40;;;;;;;;;;4878211;29;20036;-71
2022/12/13 07:45:57;;;;;;;10.25;5.40;;;;;;;;;;4891015;29;20080;-70
2022/12/13 07:48:24;;;;;;;10.15;5.70;;;;;;;;;;4889227;29;20037;-73
2022/12/13 07:50:49;;;;;;;9.80;5.50;;;;;;;;;;4893295;29;20380;-69
2022/12/13 07:53:15;;;;;;;7.70;5.07;;;;;;;;;;4905344;29;20466;-71
2022/12/13 07:55:40;;;;;;;8.82;4.68;;;;;;;;;;4895146;29;20040;-66
2022/12/13 07:58:07;;;;;;;15.93;6.53;;;;;;;;;;4891311;29;20041;-68
2022/12/13 08:00:33;;;;;;;10.05;5.40;;;;;;;;;;4892940;29;20442;-69
2022/12/13 08:03:00;;;;;;;10.18;5.55;;;;;;;;;;4892150;29;20037;-67
2022/12/13 08:05:26;;;;;;;9.95;6.00;;;;;;;;;;4894694;29;20047;-67
2022/12/13 08:07:52;;;;;;;9.77;5.47;;;;;;;;;;4895080;29;20422;-67
2022/12/13 08:10:18;;;;;;;12.00;5.47;;;;;;;;;;4897225;29;20037;-67
2022/12/13 08:12:44;;;;;;;8.00;5.53;;;;;;;;;;4892520;29;20071;-67
2022/12/13 08:15:11;;;;;;;7.22;5.30;;;;;;;;;;4907888;29;20036;-71
2022/12/13 08:17:40;;;;;;;8.57;5.20;;;;;;;;;;4892651;29;20092;-66
2022/12/13 08:20:08;;;;;;;10.00;5.80;;;;;;;;;;4894606;29;20072;-68
2022/12/13 08:22:34;;;;;;;8.90;5.15;;;;;;;;;;4893075;29;20045;-66
2022/12/13 08:25:01;;;;;;;7.88;5.45;;;;;;;;;;4893852;29;20179;-65
2022/12/13 08:27:28;;;;;;;8.43;5.55;;;;;;;;;;4895306;29;20072;-66
2022/12/13 08:29:54;;;;;;;8.93;5.25;;;;;;;;;;4893757;29;20025;-64
2022/12/13 08:32:19;;;;;;;9.00;5.47;;;;;;;;;;4894242;29;20041;-65
2022/12/13 08:34:45;;;;;;;7.43;4.80;;;;;;;;;;4895315;29;20396;-65
2022/12/13 08:37:11;;;;;;;6.85;4.50;;;;;;;;;;4895059;29;20040;-70
2022/12/13 08:39:37;;;;;;;6.03;4.18;;;;;;;;;;4895300;29;20044;-69
2022/12/13 08:42:07;;;;;;;6.03;3.72;;;;;;;;;;4895655;29;20130;-71
2022/12/13 08:44:33;;;;;;;4.80;3.38;;;;;;;;;;4909488;29;20043;-66
2022/12/13 08:46:58;;;;;;;5.47;2.95;;;;;;;;;;4910676;29;20048;-70
2022/12/13 08:49:24;;;;;;;4.43;2.88;;;;;;;;;;4896884;29;20564;-68
2022/12/13 08:51:49;;;;;;;4.05;2.75;;;;;;;;;;4894986;29;20036;-69
2022/12/13 08:54:15;;;;;;;3.80;2.47;;;;;;;;;;4892325;29;20072;-70
2022/12/13 08:56:41;;;;;;;2.78;1.90;;;;;;;;;;4911418;29;20040;-74
2022/12/13 08:59:07;;;;;;;2.40;1.77;;;;;;;;;;4908590;29;20033;-73
2022/12/13 09:01:32;;;;;;;1.95;1.60;;;;;;;;;;4892158;29;20068;-72
2022/12/13 09:03:58;;;;;;;1.88;1.48;;;;;;;;;;4893171;29;20047;-75
2022/12/13 09:06:25;;;;;;;1.65;1.50;;;;;;;;;;4892930;29;20533;-73
2022/12/13 09:08:52;;;;;;;1.50;1.40;;;;;;;;;;4910071;29;20041;-73
2022/12/13 09:11:19;;;;;;;3.38;1.80;;;;;;;;;;4894522;29;20043;-69
2022/12/13 09:13:48;;;;;;;4.07;2.22;;;;;;;;;;4890457;29;20057;-69
2022/12/13 09:16:17;;;;;;;2.20;1.60;;;;;;;;;;4892677;29;20041;-71
2022/12/13 09:18:43;;;;;;;2.63;2.05;;;;;;;;;;4889445;29;20094;-73
2022/12/13 09:21:10;;;;;;;2.42;1.55;;;;;;;;;;4890292;29;20491;-71
2022/12/13 09:23:36;;;;;;;2.38;2.08;;;;;;;;;;4891268;29;20041;-70
2022/12/13 09:26:02;;;;;;;2.08;1.63;;;;;;;;;;4893756;29;20044;-72
2022/12/13 09:28:28;;;;;;;2.88;2.15;;;;;;;;;;4910150;29;20040;-72
2022/12/13 09:30:54;;;;;;;2.05;1.85;;;;;;;;;;4895274;29;20067;-72
2022/12/13 09:33:20;;;;;;;2.95;2.00;;;;;;;;;;4892381;29;20156;-71
2022/12/13 09:35:46;;;;;;;2.88;1.77;;;;;;;;;;4893162;29;20143;-72
2022/12/13 09:38:12;;;;;;;2.70;2.00;;;;;;;;;;4907569;29;20049;-72
2022/12/13 09:40:40;;;;;;;3.80;2.03;;;;;;;;;;4892042;29;20184;-72
2022/12/13 09:43:07;;;;;;;3.15;2.15;;;;;;;;;;4907244;29;20044;-76
2022/12/13 09:45:34;;;;;;;2.63;2.15;;;;;;;;;;4892604;29;20141;-75
2022/12/13 09:48:00;;;;;;;4.05;2.20;;;;;;;;;;4892256;29;20040;-77
2022/12/13 09:50:31;;;;;;;4.15;2.80;;;;;;;;;;4893774;29;20036;-75
2022/12/13 09:53:00;;;;;;;3.70;2.40;;;;;;;;;;4892174;29;20036;-77
2022/12/13 09:55:29;;;;;;;3.53;2.53;;;;;;;;;;4891970;29;20494;-77
2022/12/13 09:57:58;;;;;;;4.93;2.55;;;;;;;;;;4891547;29;20467;-75
2022/12/13 10:00:32;;;;;;;13.18;5.55;;;;;;;;;;4907606;29;20384;-74
2022/12/13 10:02:59;;;;;;;8.18;3.65;;;;;;;;;;4891239;29;20127;-73
2022/12/13 10:05:34;;;;;;;5.55;2.80;;;;;;;;;;4891970;29;20047;-73
2022/12/13 10:08:21;;;;;;;5.55;3.55;;;;;;;;;;4904648;29;20048;-72
2022/12/13 10:10:48;;;;;;;4.00;2.78;;;;;;;;;;4888786;29;20131;-74
2022/12/13 10:13:14;;;;;;;5.75;3.30;;;;;;;;;;4906615;29;20052;-74
2022/12/13 10:15:42;;;;;;;5.18;3.20;;;;;;;;;;4905765;29;20487;-71
2022/12/13 10:18:10;;;;;;;5.63;3.92;;;;;;;;;;4907435;29;20458;-74
2022/12/13 10:20:37;;;;;;;5.82;4.22;;;;;;;;;;4892120;29;20056;-72
2022/12/13 10:23:03;;;;;;;5.43;3.63;;;;;;;;;;4890994;29;20481;-73
2022/12/13 10:25:55;;;;;;;4.30;3.05;;;;;;;;;;4905312;29;20044;-72
2022/12/13 10:28:31;;;;;;;7.07;4.38;;;;;;;;;;4875152;29;20127;-77
2022/12/13 10:30:59;;;;;;;7.53;4.63;;;;;;;;;;4899994;29;20518;-78
2022/12/13 10:33:30;;;;;;;10.65;5.78;;;;;;;;;;4876316;29;20048;-72
2022/12/13 10:36:05;;;;;;;9.80;5.78;;;;;;;;;;4907049;29;20047;-73
2022/12/13 10:38:34;;;;;;;11.75;6.63;;;;;;;;;;4889588;29;20036;-74
2022/12/13 10:41:00;;;;;;;10.65;5.65;;;;;;;;;;4906856;29;20127;-73
2022/12/13 10:43:25;;;;;;;9.40;5.85;;;;;;;;;;4892654;29;20470;-72
2022/12/13 10:45:54;;;;;;;9.77;5.95;;;;;;;;;;4892066;29;20040;-71
2022/12/13 10:48:21;;;;;;;12.68;6.78;;;;;;;;;;4905757;29;20072;-74
2022/12/13 10:51:04;;;;;;;9.55;6.05;;;;;;;;;;4891228;29;20510;-75
2022/12/13 10:53:34;;;;;;;12.45;7.38;;;;;;;;;;4891235;29;20050;-70
2022/12/13 10:56:01;;;;;;;13.02;7.30;;;;;;;;;;4892276;29;20037;-72
2022/12/13 10:58:40;;;;;;;13.25;6.90;;;;;;;;;;4895097;29;20040;-71
2022/12/13 11:01:22;;;;;;;11.73;7.47;;;;;;;;;;4909869;29;20032;-71
2022/12/13 11:03:55;;;;;;;15.65;8.27;;;;;;;;;;4894466;29;20618;-69
2022/12/13 11:06:21;;;;;;;12.57;7.43;;;;;;;;;;4893932;29;20395;-69
2022/12/13 11:08:47;;;;;;;16.52;7.97;;;;;;;;;;4895011;29;20032;-71
2022/12/13 11:11:15;;;;;;;10.85;6.70;;;;;;;;;;4893052;29;20037;-71
2022/12/13 11:13:41;;;;;;;15.02;7.90;;;;;;;;;;4894558;29;20478;-72
2022/12/13 11:16:26;;;;;;;14.80;7.53;;;;;;;;;;4893675;29;20040;-74
2022/12/13 11:18:56;;;;;;;15.80;8.65;;;;;;;;;;4892848;29;20036;-73
2022/12/13 11:21:27;;;;;;;15.90;8.40;;;;;;;;;;4906915;29;20044;-71
2022/12/13 11:23:55;;;;;;;11.23;6.20;;;;;;;;;;4893049;29;20043;-73
2022/12/13 11:26:21;;;;;;;15.35;8.88;;;;;;;;;;4907081;29;20135;-73
2022/12/13 11:28:59;;;;;;;12.85;6.50;;;;;;;;;;4908092;29;20029;-72
2022/12/13 11:31:31;;;;;;;10.82;6.45;;;;;;;;;;4892722;29;20072;-71
2022/12/13 11:34:10;;;;;;;10.88;6.28;;;;;;;;;;4906534;29;20041;-72
2022/12/13 11:36:42;;;;;;;10.80;6.68;;;;;;;;;;4893257;29;20047;-72
2022/12/13 11:39:12;;;;;;;12.05;6.40;;;;;;;;;;4896161;29;20047;-74
2022/12/13 11:41:38;;;;;;;;;;;;;;;;;;4914297;29;20052;-72
2022/12/13 11:44:22;;;;;;;11.35;6.35;;;;;;;;;;4898580;29;19920;-71
2022/12/13 11:46:53;;;;;;;11.90;6.78;;;;;;;;;;4899507;29;20188;-74
2022/12/13 11:49:40;;;;;;;9.98;6.22;;;;;;;;;;4914002;29;20446;-72
2022/12/13 11:52:16;;;;;;;15.57;7.40;;;;;;;;;;4898303;29;20520;-73
2022/12/13 11:54:41;;;;;;;12.82;6.60;;;;;;;;;;4914047;29;20414;-75
2022/12/13 11:57:15;;;;;;;12.05;6.75;;;;;;;;;;4897948;29;20048;-78
2022/12/13 11:59:45;;;;;;;10.95;6.72;;;;;;;;;;4898259;29;20049;-78
2022/12/13 12:02:17;;;;;;;9.60;6.05;;;;;;;;;;4913957;29;20112;-77
2022/12/13 12:04:50;;;;;;;10.77;6.18;;;;;;;;;;4899919;29;20045;-78
2022/12/13 12:07:18;;;;;;;10.02;6.10;;;;;;;;;;4897989;29;20055;-77
2022/12/13 12:09:49;;;;;;;10.98;6.32;;;;;;;;;;4899228;29;20072;-77
2022/12/13 12:12:29;;;;;;;10.95;6.03;;;;;;;;;;4899084;29;20040;-78
2022/12/13 12:15:00;;;;;;;11.90;6.22;;;;;;;;;;4913614;29;20566;-76
2022/12/13 12:17:27;;;;;;;9.32;6.57;;;;;;;;;;4897891;29;20153;-77
2022/12/13 12:19:54;;;;;;;11.68;6.70;;;;;;;;;;4898917;29;20540;-74
2022/12/13 12:22:20;;;;;;;8.38;5.70;;;;;;;;;;4899142;29;20029;-77
2022/12/13 12:24:51;;;;;;;9.88;5.85;;;;;;;;;;4899369;29;20049;-69
2022/12/13 12:27:18;;;;;;;10.10;5.57;;;;;;;;;;4898731;29;20040;-74
2022/12/13 12:29:43;;;;;;;9.63;5.80;;;;;;;;;;4897897;29;20076;-74
2022/12/13 12:32:26;;;;;;;10.57;5.57;;;;;;;;;;4912780;29;20041;-76
2022/12/13 12:35:06;;;;;;;9.55;4.55;;;;;;;;;;4897754;29;20052;-73
2022/12/13 12:37:42;;;;;;;8.95;5.20;;;;;;;;;;4913286;29;20040;-73
2022/12/13 12:40:31;;;;;;;8.77;5.82;;;;;;;;;;4913090;29;20238;-73
2022/12/13 12:42:59;;;;;;;9.98;5.55;;;;;;;;;;4898657;29;20040;-71
2022/12/13 12:45:34;;;;;;;10.93;6.35;;;;;;;;;;4898559;29;20052;-70
2022/12/13 12:48:03;;;;;;;8.68;5.10;;;;;;;;;;4898412;29;20055;-70
2022/12/13 12:50:48;;;;;;;7.82;5.00;;;;;;;;;;4912987;29;20161;-71
2022/12/13 12:53:24;;;;;;;9.18;5.78;;;;;;;;;;4912100;29;20153;-70
2022/12/13 12:55:49;;;;;;;7.78;5.60;;;;;;;;;;4913099;29;20040;-71
2022/12/13 12:58:33;;;;;;;10.00;6.10;;;;;;;;;;4898329;29;20071;-72
2022/12/13 13:00:59;;;;;;;9.43;5.93;;;;;;;;;;4897206;29;20048;-70
2022/12/13 13:03:26;;;;;;;10.60;5.90;;;;;;;;;;4897069;29;20445;-72
2022/12/13 13:05:54;;;;;;;10.73;6.30;;;;;;;;;;4897185;29;20048;-71
2022/12/13 13:08:20;;;;;;;12.48;7.03;;;;;;;;;;4896950;29;20486;-72
2022/12/13 13:10:47;;;;;;;13.55;6.80;;;;;;;;;;4912734;29;20526;-70
2022/12/13 13:13:31;;;;;;;11.00;6.30;;;;;;;;;;4896695;29;20541;-74
2022/12/13 13:15:57;;;;;;;11.23;6.85;;;;;;;;;;4896896;29;20044;-73
2022/12/13 13:18:43;;;;;;;10.93;6.50;;;;;;;;;;4896704;29;20499;-72
2022/12/13 13:21:22;;;;;;;9.40;6.03;;;;;;;;;;4898237;29;20140;-70
2022/12/13 13:24:00;;;;;;;10.70;6.57;;;;;;;;;;4912583;29;20040;-71
2022/12/13 13:26:29;;;;;;;11.85;7.00;;;;;;;;;;4912230;29;20052;-73
2022/12/13 13:29:15;;;;;;;11.48;7.00;;;;;;;;;;4897880;29;20052;-71
2022/12/13 13:32:07;;;;;;;10.75;7.00;;;;;;;;;;4897637;29;20051;-71
2022/12/13 13:34:38;;;;;;;13.60;7.30;;;;;;;;;;4896606;29;20057;-70
2022/12/13 13:37:20;;;;;;;12.43;6.90;;;;;;;;;;4912070;29;20047;-70
2022/12/13 13:39:52;;;;;;;13.07;7.47;;;;;;;;;;4912566;29;20037;-72
2022/12/13 13:42:19;;;;;;;13.13;7.00;;;;;;;;;;4897618;29;20074;-72
2022/12/13 13:44:48;;;;;;;13.15;7.90;;;;;;;;;;4912291;29;20518;-71
2022/12/13 13:47:23;;;;;;;13.45;7.55;;;;;;;;;;4897264;29;20044;-72
2022/12/13 13:50:07;;;;;;;13.70;7.20;;;;;;;;;;4896479;29;20072;-71
2022/12/13 13:52:37;;;;;;;12.02;7.40;;;;;;;;;;4896303;29;20036;-71
2022/12/13 13:55:13;;;;;;;13.43;7.78;;;;;;;;;;4896145;29;20130;-70
2022/12/13 13:57:45;;;;;;;12.30;7.22;;;;;;;;;;4895890;29;20113;-71
2022/12/13 14:00:16;;;;;;;12.98;7.75;;;;;;;;;;4896200;29;20047;-73
2022/12/13 14:02:48;;;;;;;13.55;7.55;;;;;;;;;;4895825;29;20032;-73
2022/12/13 14:05:20;;;;;;;10.13;6.75;;;;;;;;;;4911400;29;20036;-72
2022/12/13 14:07:49;;;;;;;16.52;7.93;;;;;;;;;;4895609;29;20392;-72
2022/12/13 14:10:16;;;;;;;13.13;8.48;;;;;;;;;;4895703;29;20053;-71
2022/12/13 14:12:47;;;;;;;11.20;7.45;;;;;;;;;;4895932;29;20108;-72
2022/12/13 14:15:32;;;;;;;13.27;8.30;;;;;;;;;;4911993;29;20036;-75
2022/12/13 14:17:59;;;;;;;13.23;8.35;;;;;;;;;;4895850;29;20028;-71
2022/12/13 14:20:31;;;;;;;15.23;8.38;;;;;;;;;;4911649;29;20392;-69
2022/12/13 14:23:19;;;;;;;15.00;8.25;;;;;;;;;;4895592;29;20478;-72
2022/12/13 14:25:50;;;;;;;11.90;7.70;;;;;;;;;;4897096;29;20570;-81
2022/12/13 14:28:21;;;;;;;13.95;8.82;;;;;;;;;;4895990;29;20044;-78
2022/12/13 14:30:46;;;;;;;14.75;8.00;;;;;;;;;;4897050;29;20518;-73
2022/12/13 14:33:22;;;;;;;15.02;8.25;;;;;;;;;;4911246;29;20041;-72
2022/12/13 14:35:59;;;;;;;13.88;8.38;;;;;;;;;;4896954;29;20044;-74
2022/12/13 14:38:29;;;;;;;15.15;8.18;;;;;;;;;;4897002;29;20041;-74
2022/12/13 14:40:58;;;;;;;13.68;8.25;;;;;;;;;;4896761;29;20377;-73
2022/12/13 14:43:29;;;;;;;13.35;8.10;;;;;;;;;;4895626;29;20068;-74
2022/12/13 14:46:03;;;;;;;14.57;8.32;;;;;;;;;;4910725;29;20099;-72
2022/12/13 14:48:33;;;;;;;14.32;8.43;;;;;;;;;;4896802;29;20040;-73
2022/12/13 14:51:03;;;;;;;16.10;8.80;;;;;;;;;;4894331;29;20151;-72
2022/12/13 14:53:40;;;;;;;15.43;8.68;;;;;;;;;;4896614;29;20123;-73